Strona główna
METAR-TAF:

METAR-TAF

Lotnisko :

Valley, Walia

Szerokość geograficzna: 53-15N, Długość geograficzna: 004-32W, wysokość: 1 m

Aktualna obserwacja pogody

Raport powstał 27 minut temu, godzina 10:20 UTC
Wiatr 5 kt od wschód
Temperatura 7°C
Wilgotność 87%
Ciśnienie 1019 hPa
Widzialność 10 km lub więcej
Mało chmury na wysokości 2000 ft
Przerywane chmury na wysokości 4600 ft

METAR: EGOV 271020Z 10005KT 9999 FEW020 BKN046 07/05 Q1019 NOSIG RMK BLU BLU

czas: 10:47 (10:47 UTC)

Prognoza

Raport powstał 2 godziny i 56 minut temu, godzina 07:51 UTC
Prognoza ważna od 27 godzina 09 UTC do 27 godzina 18 UTC
Wiatr 4 kt od wschód
Widzialność 10 km lub więcej
Rozproszone chmury na wysokości 4000 ft
Prawdopodobieństwo 30% :
Przejściowo
od 27 godzina 12 UTC do 27 godzina 18 UTC
Rozproszone chmury na wysokości 2000 ft

TAF: EGOV 270751Z 2709/2718 10004KT 9999 SCT040 PROB30 TEMPO 2712/2718 SCT020

Obserwacja i prognoza pogody dla ponad 4000 lotnisk (raport METAR i TAF).

Dostępne stacje oznaczono żółtymi i czerwonymi punktami na mapie.

Najedź kursorem aby zobaczyć nazwę stacji.

Kliknij aby zobaczyć obserwacje i prognozy pogody.

Aby zmienić mapę: kliknij na zielony przycisk z czarnym krzyżykiem, aby powiększyć; na zielony przycisk z myślnikiem, aby pomniejszyć; na zielone strzałki, aby przejść do map sąsiednich.


METAR-TAF: